Time;durP1;ratioP1;P1;durP2;ratioP2;P2;SDS_P1;SDS_P2;PMS_P1;PMS_P2;Temp;Humidity;BMP_temperature;BMP_pressure;BME280_temperature;BME280_humidity;BME280_pressure;Samples;Min_cycle;Max_cycle;Signal;HPM_P1;HPM_P2
2022/03/05 00:01:56;;;;;;;28.38;14.45;;;;;;;;;;5061539;28;20210;-81
2022/03/05 00:04:23;;;;;;;25.33;12.82;;;;;;;;;;5064087;28;20202;-80
2022/03/05 00:06:50;;;;;;;28.50;13.23;;;;;;;;;;5067438;28;20585;-79
2022/03/05 00:09:20;;;;;;;34.95;14.57;;;;;;;;;;5069481;28;20209;-82
2022/03/05 00:11:49;;;;;;;31.38;14.38;;;;;;;;;;5056575;28;20226;-81
2022/03/05 00:14:16;;;;;;;33.28;16.45;;;;;;;;;;5060246;28;20223;-81
2022/03/05 00:16:45;;;;;;;31.98;16.75;;;;;;;;;;5061395;28;20289;-79
2022/03/05 00:19:12;;;;;;;25.40;13.10;;;;;;;;;;5055093;28;20560;-82
2022/03/05 00:21:39;;;;;;;32.80;14.90;;;;;;;;;;5057038;28;20639;-80
2022/03/05 00:24:06;;;;;;;36.90;16.73;;;;;;;;;;5063325;28;20206;-82
2022/03/05 00:26:34;;;;;;;31.05;15.55;;;;;;;;;;5068820;28;20200;-81
2022/03/05 00:29:01;;;;;;;36.35;15.95;;;;;;;;;;5068374;28;20247;-82
2022/03/05 00:31:28;;;;;;;32.10;16.45;;;;;;;;;;5068643;28;20217;-80
2022/03/05 00:33:56;;;;;;;35.78;17.45;;;;;;;;;;5050534;28;20845;-82
2022/03/05 00:36:23;;;;;;;29.05;14.85;;;;;;;;;;5059631;28;20613;-81
2022/03/05 00:38:51;;;;;;;31.48;14.88;;;;;;;;;;5072331;28;20201;-83
2022/03/05 00:41:18;;;;;;;32.58;15.25;;;;;;;;;;5062854;28;20190;-82
2022/03/05 00:43:45;;;;;;;35.03;16.80;;;;;;;;;;5056685;28;20561;-81
2022/03/05 00:46:12;;;;;;;31.52;16.08;;;;;;;;;;5065961;28;20309;-77
2022/03/05 00:48:40;;;;;;;34.00;16.30;;;;;;;;;;5066295;28;20194;-80
2022/03/05 00:51:08;;;;;;;35.10;15.80;;;;;;;;;;5066855;28;20577;-82
2022/03/05 00:53:35;;;;;;;37.05;18.05;;;;;;;;;;5069628;28;20198;-81
2022/03/05 00:56:03;;;;;;;32.95;14.82;;;;;;;;;;5052207;28;20213;-78
2022/03/05 00:58:30;;;;;;;33.95;17.10;;;;;;;;;;5050354;28;20191;-81
2022/03/05 01:00:57;;;;;;;31.05;15.27;;;;;;;;;;5051562;28;20222;-77
2022/03/05 01:03:24;;;;;;;39.67;17.85;;;;;;;;;;5052210;28;20198;-83
2022/03/05 01:05:53;;;;;;;34.92;17.08;;;;;;;;;;5065078;28;20214;-80
2022/03/05 01:08:21;;;;;;;37.63;16.40;;;;;;;;;;5067939;28;20198;-79
2022/03/05 01:10:48;;;;;;;32.55;17.55;;;;;;;;;;5057384;28;20223;-78
2022/03/05 01:13:15;;;;;;;36.38;16.42;;;;;;;;;;5061991;28;20628;-82
2022/03/05 01:15:45;;;;;;;39.63;18.15;;;;;;;;;;5064213;28;20217;-82
2022/03/05 01:18:12;;;;;;;36.90;18.48;;;;;;;;;;5050619;28;20553;-82
2022/03/05 01:20:39;;;;;;;37.08;17.25;;;;;;;;;;5051710;28;20198;-81
2022/03/05 01:23:06;;;;;;;36.03;16.98;;;;;;;;;;5051571;28;20198;-80
2022/03/05 01:25:34;;;;;;;35.85;19.65;;;;;;;;;;5065085;28;20248;-79
2022/03/05 01:28:02;;;;;;;36.45;17.88;;;;;;;;;;5066519;28;20193;-81
2022/03/05 01:30:29;;;;;;;33.40;15.57;;;;;;;;;;5067709;28;20297;-81
2022/03/05 01:32:56;;;;;;;41.17;17.17;;;;;;;;;;5067907;28;20194;-81
2022/03/05 01:35:23;;;;;;;41.40;17.25;;;;;;;;;;5057220;28;20210;-81
2022/03/05 01:37:50;;;;;;;33.72;16.95;;;;;;;;;;5059109;28;20664;-78
2022/03/05 01:40:18;;;;;;;35.97;16.92;;;;;;;;;;5050436;28;20194;-79
2022/03/05 01:42:46;;;;;;;40.72;16.65;;;;;;;;;;5066655;28;20910;-79
2022/03/05 01:45:13;;;;;;;38.83;17.80;;;;;;;;;;5064186;28;20218;-80
2022/03/05 01:47:41;;;;;;;39.20;18.00;;;;;;;;;;5048612;28;20202;-80
2022/03/05 01:50:09;;;;;;;37.28;17.83;;;;;;;;;;5048524;28;20214;-79
2022/03/05 01:52:38;;;;;;;39.38;18.45;;;;;;;;;;5048979;28;20211;-79
2022/03/05 01:55:06;;;;;;;34.88;18.40;;;;;;;;;;5050357;28;20413;-80
2022/03/05 01:57:33;;;;;;;39.40;18.98;;;;;;;;;;5069608;28;20284;-79
2022/03/05 02:00:02;;;;;;;37.95;16.88;;;;;;;;;;5068275;28;20773;-80
2022/03/05 02:02:29;;;;;;;43.53;20.05;;;;;;;;;;5065449;28;20194;-77
2022/03/05 02:04:57;;;;;;;38.25;18.50;;;;;;;;;;5056734;28;20221;-77
2022/03/05 02:07:24;;;;;;;41.33;17.10;;;;;;;;;;5052579;28;20281;-77
2022/03/05 02:09:52;;;;;;;40.40;18.23;;;;;;;;;;5062990;28;20205;-77
2022/03/05 02:12:19;;;;;;;38.83;19.40;;;;;;;;;;5049679;28;20683;-78
2022/03/05 02:14:46;;;;;;;39.70;19.75;;;;;;;;;;5050875;28;20211;-80
2022/03/05 02:17:15;;;;;;;42.10;19.50;;;;;;;;;;5061985;28;20212;-81
2022/03/05 02:19:42;;;;;;;47.45;19.80;;;;;;;;;;5065589;28;20194;-80
2022/03/05 02:22:11;;;;;;;42.85;20.88;;;;;;;;;;5052983;28;20209;-78
2022/03/05 02:24:38;;;;;;;42.83;20.35;;;;;;;;;;5048715;28;20245;-81
2022/03/05 02:27:06;;;;;;;37.80;18.20;;;;;;;;;;5049570;28;20190;-80
2022/03/05 02:29:33;;;;;;;34.78;17.80;;;;;;;;;;5047453;28;20191;-81
2022/03/05 02:32:01;;;;;;;39.60;19.40;;;;;;;;;;5055415;28;20281;-77
2022/03/05 02:34:28;;;;;;;41.92;19.55;;;;;;;;;;5053449;28;20214;-78
2022/03/05 02:36:55;;;;;;;41.17;19.15;;;;;;;;;;5055444;28;20313;-82
2022/03/05 02:39:24;;;;;;;43.83;19.58;;;;;;;;;;5058128;28;20603;-82
2022/03/05 02:41:51;;;;;;;39.65;19.85;;;;;;;;;;5066121;28;20198;-80
2022/03/05 02:44:18;;;;;;;47.70;20.08;;;;;;;;;;5067256;28;20573;-81
2022/03/05 02:46:46;;;;;;;39.03;18.38;;;;;;;;;;5061056;28;20221;-79
2022/03/05 02:49:13;;;;;;;43.42;20.55;;;;;;;;;;5069141;28;20648;-79
2022/03/05 02:51:40;;;;;;;47.20;20.80;;;;;;;;;;5067912;28;20217;-79
2022/03/05 02:54:07;;;;;;;41.22;21.27;;;;;;;;;;5063602;28;20202;-82
2022/03/05 02:56:35;;;;;;;40.40;18.52;;;;;;;;;;5054862;28;20198;-79
2022/03/05 02:59:03;;;;;;;37.17;18.95;;;;;;;;;;5066206;28;20193;-80
2022/03/05 03:01:30;;;;;;;43.92;19.08;;;;;;;;;;5059812;28;20195;-81
2022/03/05 03:03:58;;;;;;;42.75;18.88;;;;;;;;;;5050272;28;20213;-80
2022/03/05 03:06:25;;;;;;;43.60;19.58;;;;;;;;;;5054655;28;20199;-80
2022/03/05 03:08:52;;;;;;;46.17;20.80;;;;;;;;;;5061515;28;20194;-79
2022/03/05 03:11:19;;;;;;;39.25;19.00;;;;;;;;;;5065908;28;20218;-80
2022/03/05 03:13:50;;;;;;;45.13;17.95;;;;;;;;;;5055360;28;20664;-78
2022/03/05 03:16:18;;;;;;;37.45;18.52;;;;;;;;;;5066728;28;20218;-78
2022/03/05 03:18:45;;;;;;;39.80;19.42;;;;;;;;;;5060449;28;20206;-80
2022/03/05 03:21:12;;;;;;;44.25;19.23;;;;;;;;;;5050193;28;20655;-80
2022/03/05 03:23:39;;;;;;;36.50;18.38;;;;;;;;;;5066559;28;20541;-79
2022/03/05 03:26:09;;;;;;;41.60;19.40;;;;;;;;;;5056471;28;20241;-82
2022/03/05 03:28:36;;;;;;;36.80;17.75;;;;;;;;;;5067546;28;20251;-78
2022/03/05 03:31:04;;;;;;;43.17;19.05;;;;;;;;;;5063350;28;20205;-80
2022/03/05 03:33:31;;;;;;;40.45;18.50;;;;;;;;;;5065940;28;20202;-79
2022/03/05 03:35:58;;;;;;;41.85;17.95;;;;;;;;;;5061243;28;20215;-78
2022/03/05 03:38:26;;;;;;;40.38;20.10;;;;;;;;;;5054408;28;20211;-80
2022/03/05 03:40:53;;;;;;;33.13;16.67;;;;;;;;;;5068464;28;20205;-78
2022/03/05 03:43:20;;;;;;;43.13;20.35;;;;;;;;;;5051495;28;20195;-81
2022/03/05 03:45:47;;;;;;;35.92;18.95;;;;;;;;;;5068417;28;20206;-79
2022/03/05 03:48:16;;;;;;;41.65;19.45;;;;;;;;;;5060352;28;20194;-81
2022/03/05 03:50:43;;;;;;;43.55;19.92;;;;;;;;;;5067872;28;20659;-79
2022/03/05 03:53:10;;;;;;;39.70;19.02;;;;;;;;;;5070184;28;20225;-81
2022/03/05 03:55:37;;;;;;;40.85;19.40;;;;;;;;;;5066562;28;20218;-79
2022/03/05 03:58:04;;;;;;;35.45;18.02;;;;;;;;;;5068531;28;20196;-80
2022/03/05 04:00:31;;;;;;;41.28;19.40;;;;;;;;;;5051977;28;20197;-82
2022/03/05 04:02:58;;;;;;;35.83;17.92;;;;;;;;;;5052336;28;20556;-79
2022/03/05 04:05:40;;;;;;;38.42;17.80;;;;;;;;;;5052434;28;20215;-80
2022/03/05 04:10:50;;;;;;;43.75;19.08;;;;;;;;;;5036512;28;20842;-79
2022/03/05 04:13:17;;;;;;;46.50;19.95;;;;;;;;;;5031426;28;20704;-79
2022/03/05 04:15:45;;;;;;;37.65;17.67;;;;;;;;;;5041524;28;20226;-78
2022/03/05 04:18:12;;;;;;;44.47;18.90;;;;;;;;;;5045584;28;20199;-77
2022/03/05 04:20:39;;;;;;;41.33;17.35;;;;;;;;;;5043307;28;20199;-80
2022/03/05 04:23:07;;;;;;;33.83;17.60;;;;;;;;;;5042510;28;20191;-79
2022/03/05 04:25:35;;;;;;;40.40;18.95;;;;;;;;;;5030996;28;20633;-79
2022/03/05 04:28:04;;;;;;;41.92;18.92;;;;;;;;;;5038803;28;20606;-78
2022/03/05 04:33:12;;;;;;;40.78;17.88;;;;;;;;;;5015160;28;20236;-78
2022/03/05 04:35:39;;;;;;;43.35;18.77;;;;;;;;;;5017172;28;20226;-79
2022/03/05 04:38:07;;;;;;;39.08;19.40;;;;;;;;;;5021674;28;20228;-79
2022/03/05 04:40:35;;;;;;;49.10;20.83;;;;;;;;;;5035079;28;20306;-79
2022/03/05 04:43:03;;;;;;;40.47;17.40;;;;;;;;;;5027314;28;20203;-79
2022/03/05 04:45:30;;;;;;;36.63;17.60;;;;;;;;;;5027703;28;20219;-80
2022/03/05 04:47:57;;;;;;;41.42;18.85;;;;;;;;;;5032186;28;20201;-80
2022/03/05 04:50:25;;;;;;;39.25;18.00;;;;;;;;;;5036086;28;20195;-81
2022/03/05 04:52:52;;;;;;;38.15;18.38;;;;;;;;;;5032698;28;20215;-80
2022/03/05 04:55:19;;;;;;;39.92;17.85;;;;;;;;;;5038633;28;20206;-81
2022/03/05 04:57:47;;;;;;;38.90;19.55;;;;;;;;;;5047997;28;20197;-79
2022/03/05 05:00:15;;;;;;;38.75;17.58;;;;;;;;;;5031635;28;20203;-80
2022/03/05 05:02:42;;;;;;;39.40;19.52;;;;;;;;;;5028925;28;20195;-80
2022/03/05 05:05:10;;;;;;;41.30;20.13;;;;;;;;;;5048479;28;20227;-78
2022/03/05 05:07:38;;;;;;;39.88;18.70;;;;;;;;;;5052310;28;20213;-81
2022/03/05 05:10:06;;;;;;;38.88;18.10;;;;;;;;;;5059581;28;20709;-80
2022/03/05 05:12:33;;;;;;;37.78;18.80;;;;;;;;;;5067729;28;20237;-78
2022/03/05 05:15:01;;;;;;;36.55;17.67;;;;;;;;;;5070206;28;20210;-78
2022/03/05 05:17:28;;;;;;;35.92;18.05;;;;;;;;;;5065236;28;20190;-79
2022/03/05 05:19:57;;;;;;;37.38;17.90;;;;;;;;;;5070741;28;20201;-81
2022/03/05 05:22:24;;;;;;;36.75;18.10;;;;;;;;;;5068615;28;20247;-79
2022/03/05 05:24:52;;;;;;;37.20;18.45;;;;;;;;;;5059989;28;20223;-78
2022/03/05 05:27:19;;;;;;;42.78;18.35;;;;;;;;;;5062145;28;20328;-79
2022/03/05 05:29:46;;;;;;;40.75;18.35;;;;;;;;;;5062313;28;20579;-78
2022/03/05 05:32:14;;;;;;;37.55;16.50;;;;;;;;;;5064354;28;20213;-81
2022/03/05 05:34:42;;;;;;;42.28;17.20;;;;;;;;;;5052071;28;20217;-78
2022/03/05 05:37:09;;;;;;;41.50;18.85;;;;;;;;;;5057280;28;20203;-80
2022/03/05 05:39:37;;;;;;;42.38;19.10;;;;;;;;;;5049118;28;20191;-80
2022/03/05 05:42:04;;;;;;;38.45;17.05;;;;;;;;;;5049442;28;20217;-79
2022/03/05 05:44:32;;;;;;;39.70;18.38;;;;;;;;;;5054186;28;20218;-78
2022/03/05 05:46:59;;;;;;;32.58;17.20;;;;;;;;;;5067341;28;20711;-80
2022/03/05 05:49:27;;;;;;;38.17;18.98;;;;;;;;;;5060820;28;20794;-78
2022/03/05 05:51:54;;;;;;;36.17;17.95;;;;;;;;;;5053108;28;20202;-79
2022/03/05 05:54:22;;;;;;;38.42;18.17;;;;;;;;;;5068513;28;20229;-79
2022/03/05 05:56:49;;;;;;;39.60;18.13;;;;;;;;;;5070630;28;20197;-78
2022/03/05 05:59:16;;;;;;;40.05;18.20;;;;;;;;;;5062200;28;20198;-78
2022/03/05 06:01:43;;;;;;;36.03;17.80;;;;;;;;;;5050165;28;20683;-80
2022/03/05 06:04:11;;;;;;;36.00;16.67;;;;;;;;;;5058909;28;20214;-80
2022/03/05 06:06:39;;;;;;;43.03;19.42;;;;;;;;;;5054698;28;20281;-83
2022/03/05 06:09:06;;;;;;;38.65;18.60;;;;;;;;;;5068746;28;20643;-80
2022/03/05 06:11:34;;;;;;;37.38;18.08;;;;;;;;;;5064705;28;20229;-80
2022/03/05 06:14:01;;;;;;;40.35;18.67;;;;;;;;;;5053814;28;20250;-79
2022/03/05 06:16:28;;;;;;;44.58;20.40;;;;;;;;;;5066387;28;20557;-77
2022/03/05 06:18:55;;;;;;;35.22;17.25;;;;;;;;;;5063020;28;20256;-81
2022/03/05 06:21:23;;;;;;;41.63;17.23;;;;;;;;;;5062144;28;20205;-80
2022/03/05 06:23:51;;;;;;;35.00;16.27;;;;;;;;;;5070735;28;20229;-80
2022/03/05 06:26:19;;;;;;;40.38;17.65;;;;;;;;;;5062711;28;20298;-79
2022/03/05 06:28:46;;;;;;;40.55;17.65;;;;;;;;;;5066070;28;20194;-80
2022/03/05 06:31:13;;;;;;;40.35;17.58;;;;;;;;;;5065466;28;20194;-81
2022/03/05 06:33:40;;;;;;;43.63;19.50;;;;;;;;;;5065227;28;20237;-81
2022/03/05 06:36:07;;;;;;;39.58;18.98;;;;;;;;;;5058884;28;20309;-83
2022/03/05 06:38:35;;;;;;;42.15;17.52;;;;;;;;;;5067106;28;20284;-82
2022/03/05 06:41:03;;;;;;;36.83;17.13;;;;;;;;;;5050985;28;20202;-83
2022/03/05 06:43:32;;;;;;;40.63;20.80;;;;;;;;;;5059420;28;20206;-77
2022/03/05 06:45:59;;;;;;;33.05;18.27;;;;;;;;;;5068369;28;20224;-80
2022/03/05 06:48:26;;;;;;;33.92;16.40;;;;;;;;;;5066034;28;20194;-80
2022/03/05 06:50:53;;;;;;;40.28;18.30;;;;;;;;;;5057948;28;20570;-80
2022/03/05 06:53:21;;;;;;;40.03;17.55;;;;;;;;;;5050267;28;20238;-77
2022/03/05 06:55:48;;;;;;;35.10;17.75;;;;;;;;;;5051407;28;20580;-79
2022/03/05 06:58:17;;;;;;;37.95;17.10;;;;;;;;;;5059291;28;20191;-77
2022/03/05 07:00:45;;;;;;;36.90;18.13;;;;;;;;;;5054192;28;20602;-79
2022/03/05 07:03:12;;;;;;;37.58;17.52;;;;;;;;;;5061376;28;20559;-78
2022/03/05 07:05:39;;;;;;;38.40;19.25;;;;;;;;;;5065339;28;20923;-81
2022/03/05 07:08:07;;;;;;;32.05;17.13;;;;;;;;;;5059455;28;20203;-80
2022/03/05 07:10:34;;;;;;;35.60;17.67;;;;;;;;;;5060232;28;20191;-80
2022/03/05 07:13:01;;;;;;;36.78;16.92;;;;;;;;;;5054079;28;20214;-79
2022/03/05 07:15:30;;;;;;;34.03;16.92;;;;;;;;;;5069153;28;20228;-81
2022/03/05 07:17:57;;;;;;;34.55;16.30;;;;;;;;;;5073237;28;20204;-81
2022/03/05 07:20:24;;;;;;;38.00;17.77;;;;;;;;;;5056913;28;20293;-80
2022/03/05 07:22:51;;;;;;;35.15;17.88;;;;;;;;;;5056057;28;20187;-81
